Beulah Heights, Illinois
Current Conditions -  °F | °C
As of 11:55 PM on Thursday 30 Oct 2014 (Local Time) from KHSB Reporting Station
Drizzle Drizzle  
Wind Chill: 51°   Ceiling: 5000
Heat Index: 51°   Visibility: 10mi
Dew Point: 48°   Wind: 0mph
Humidity: 89%   Direction: NA
Pressure: 30.04"   Gusts: NA
Location:  37.8101°N, 88.4411°W
Report Text: KHSB 310455Z AUTO 00000KT 10SM -DZ BKN050 OVC080 11/09 A3004 RMK AO2 T01070089
Loading
Personal Weather Stations






























Interactive Weather Map
Tropical Storm Tracking
New forecast layout! Learn more

10-Day Weather Forecast

Advertisements
Track Severe Weather on mobile